sensor_id;sensor_type;location;lat;lon;timestamp;P1;durP1;ratioP1;P2;durP2;ratioP2
25481;SDS011;13395;50.752;4.268;2023-06-22T02:32:38;5.70;;;3.10;;
25481;SDS011;13395;50.752;4.268;2023-06-22T02:35:06;4.75;;;3.67;;
25481;SDS011;13395;50.752;4.268;2023-06-22T02:37:33;4.30;;;3.67;;
25481;SDS011;13395;50.752;4.268;2023-06-22T02:40:01;5.65;;;3.08;;
25481;SDS011;13395;50.752;4.268;2023-06-22T02:42:29;5.00;;;3.47;;
25481;SDS011;13395;50.752;4.268;2023-06-22T03:00:20;6.75;;;3.38;;
25481;SDS011;13395;50.752;4.268;2023-06-22T03:02:46;8.15;;;3.38;;
25481;SDS011;13395;50.752;4.268;2023-06-22T03:05:16;4.65;;;2.97;;
25481;SDS011;13395;50.752;4.268;2023-06-22T03:12:44;6.32;;;3.53;;
25481;SDS011;13395;50.752;4.268;2023-06-22T03:15:10;6.38;;;4.07;;
25481;SDS011;13395;50.752;4.268;2023-06-22T03:17:37;6.20;;;3.50;;
25481;SDS011;13395;50.752;4.268;2023-06-22T03:20:04;4.32;;;3.92;;
25481;SDS011;13395;50.752;4.268;2023-06-22T03:38:07;10.13;;;3.72;;
25481;SDS011;13395;50.752;4.268;2023-06-22T03:58:40;12.02;;;3.20;;
25481;SDS011;13395;50.752;4.268;2023-06-22T04:03:38;5.60;;;4.00;;
25481;SDS011;13395;50.752;4.268;2023-06-22T04:26:47;7.35;;;3.67;;
25481;SDS011;13395;50.752;4.268;2023-06-22T04:29:12;5.40;;;4.10;;
25481;SDS011;13395;50.752;4.268;2023-06-22T04:52:21;6.57;;;5.05;;
25481;SDS011;13395;50.752;4.268;2023-06-22T05:10:19;6.40;;;5.60;;
25481;SDS011;13395;50.752;4.268;2023-06-22T05:25:41;9.90;;;7.68;;
25481;SDS011;13395;50.752;4.268;2023-06-22T05:28:07;13.52;;;9.00;;
25481;SDS011;13395;50.752;4.268;2023-06-22T05:30:36;45.35;;;10.02;;
25481;SDS011;13395;50.752;4.268;2023-06-22T05:33:02;11.73;;;8.77;;
25481;SDS011;13395;50.752;4.268;2023-06-22T05:35:28;14.45;;;10.02;;
25481;SDS011;13395;50.752;4.268;2023-06-22T05:37:54;9.88;;;8.77;;
25481;SDS011;13395;50.752;4.268;2023-06-22T05:40:20;11.50;;;9.00;;
25481;SDS011;13395;50.752;4.268;2023-06-22T05:42:46;11.43;;;8.80;;
25481;SDS011;13395;50.752;4.268;2023-06-22T05:45:12;10.82;;;8.73;;
25481;SDS011;13395;50.752;4.268;2023-06-22T05:47:38;12.15;;;9.00;;
25481;SDS011;13395;50.752;4.268;2023-06-22T05:50:04;11.43;;;8.77;;
25481;SDS011;13395;50.752;4.268;2023-06-22T05:52:33;19.30;;;10.05;;
25481;SDS011;13395;50.752;4.268;2023-06-22T05:54:59;11.23;;;8.85;;
25481;SDS011;13395;50.752;4.268;2023-06-22T05:57:25;11.25;;;9.90;;
25481;SDS011;13395;50.752;4.268;2023-06-22T05:59:50;13.30;;;10.00;;
25481;SDS011;13395;50.752;4.268;2023-06-22T06:02:16;13.98;;;10.43;;
25481;SDS011;13395;50.752;4.268;2023-06-22T06:04:42;14.75;;;11.27;;
25481;SDS011;13395;50.752;4.268;2023-06-22T06:07:08;14.18;;;10.85;;
25481;SDS011;13395;50.752;4.268;2023-06-22T06:09:33;18.48;;;11.25;;
25481;SDS011;13395;50.752;4.268;2023-06-22T06:14:34;15.88;;;12.10;;
25481;SDS011;13395;50.752;4.268;2023-06-22T06:17:00;17.80;;;13.05;;
25481;SDS011;13395;50.752;4.268;2023-06-22T06:19:26;16.30;;;12.32;;
25481;SDS011;13395;50.752;4.268;2023-06-22T06:21:52;15.15;;;13.43;;
25481;SDS011;13395;50.752;4.268;2023-06-22T06:24:17;15.20;;;12.15;;
25481;SDS011;13395;50.752;4.268;2023-06-22T06:26:43;13.93;;;12.23;;
25481;SDS011;13395;50.752;4.268;2023-06-22T06:29:08;20.52;;;13.32;;
25481;SDS011;13395;50.752;4.268;2023-06-22T06:31:34;15.77;;;12.57;;
25481;SDS011;13395;50.752;4.268;2023-06-22T06:34:01;15.60;;;12.43;;
25481;SDS011;13395;50.752;4.268;2023-06-22T06:36:27;13.45;;;12.05;;
25481;SDS011;13395;50.752;4.268;2023-06-22T06:38:52;15.13;;;13.00;;
25481;SDS011;13395;50.752;4.268;2023-06-22T06:41:18;15.48;;;13.65;;
25481;SDS011;13395;50.752;4.268;2023-06-22T06:43:44;16.48;;;13.25;;
25481;SDS011;13395;50.752;4.268;2023-06-22T06:46:10;15.82;;;14.05;;
25481;SDS011;13395;50.752;4.268;2023-06-22T06:48:36;21.25;;;15.30;;
25481;SDS011;13395;50.752;4.268;2023-06-22T06:51:01;20.40;;;14.70;;
25481;SDS011;13395;50.752;4.268;2023-06-22T06:53:27;21.88;;;16.08;;
25481;SDS011;13395;50.752;4.268;2023-06-22T06:55:53;18.90;;;15.45;;
25481;SDS011;13395;50.752;4.268;2023-06-22T06:58:19;19.90;;;15.18;;
25481;SDS011;13395;50.752;4.268;2023-06-22T07:00:45;19.30;;;15.20;;
25481;SDS011;13395;50.752;4.268;2023-06-22T07:03:10;24.17;;;16.15;;
25481;SDS011;13395;50.752;4.268;2023-06-22T07:05:36;18.67;;;15.23;;
25481;SDS011;13395;50.752;4.268;2023-06-22T07:08:02;22.95;;;15.55;;
25481;SDS011;13395;50.752;4.268;2023-06-22T07:10:28;26.45;;;15.98;;
25481;SDS011;13395;50.752;4.268;2023-06-22T07:12:54;23.13;;;16.02;;
25481;SDS011;13395;50.752;4.268;2023-06-22T07:15:19;18.00;;;15.45;;
25481;SDS011;13395;50.752;4.268;2023-06-22T07:17:45;19.98;;;16.02;;
25481;SDS011;13395;50.752;4.268;2023-06-22T07:20:11;23.67;;;14.88;;
25481;SDS011;13395;50.752;4.268;2023-06-22T07:22:41;19.40;;;14.98;;
25481;SDS011;13395;50.752;4.268;2023-06-22T07:25:07;19.40;;;16.33;;
25481;SDS011;13395;50.752;4.268;2023-06-22T07:27:39;18.80;;;15.50;;
25481;SDS011;13395;50.752;4.268;2023-06-22T07:30:09;21.30;;;15.10;;
25481;SDS011;13395;50.752;4.268;2023-06-22T07:32:35;22.33;;;16.05;;
25481;SDS011;13395;50.752;4.268;2023-06-22T07:35:01;19.98;;;16.20;;
25481;SDS011;13395;50.752;4.268;2023-06-22T07:37:30;19.52;;;15.70;;
25481;SDS011;13395;50.752;4.268;2023-06-22T07:39:58;28.38;;;17.27;;
25481;SDS011;13395;50.752;4.268;2023-06-22T07:42:27;21.88;;;16.38;;
25481;SDS011;13395;50.752;4.268;2023-06-22T07:44:53;21.23;;;16.80;;
25481;SDS011;13395;50.752;4.268;2023-06-22T07:47:20;20.02;;;16.00;;
25481;SDS011;13395;50.752;4.268;2023-06-22T07:49:50;22.88;;;16.40;;
25481;SDS011;13395;50.752;4.268;2023-06-22T07:52:15;21.67;;;15.15;;
25481;SDS011;13395;50.752;4.268;2023-06-22T07:54:41;19.35;;;14.70;;
25481;SDS011;13395;50.752;4.268;2023-06-22T07:57:06;18.67;;;14.88;;
25481;SDS011;13395;50.752;4.268;2023-06-22T07:59:32;16.48;;;13.63;;
25481;SDS011;13395;50.752;4.268;2023-06-22T08:01:58;19.42;;;15.63;;
25481;SDS011;13395;50.752;4.268;2023-06-22T08:04:23;16.27;;;14.05;;
25481;SDS011;13395;50.752;4.268;2023-06-22T08:06:49;20.13;;;13.80;;
25481;SDS011;13395;50.752;4.268;2023-06-22T08:09:14;16.40;;;13.73;;
25481;SDS011;13395;50.752;4.268;2023-06-22T08:11:40;21.00;;;13.57;;
25481;SDS011;13395;50.752;4.268;2023-06-22T08:14:06;14.77;;;12.73;;
25481;SDS011;13395;50.752;4.268;2023-06-22T08:16:31;17.90;;;13.57;;
25481;SDS011;13395;50.752;4.268;2023-06-22T08:18:57;20.17;;;13.85;;
25481;SDS011;13395;50.752;4.268;2023-06-22T08:21:22;21.15;;;12.60;;
25481;SDS011;13395;50.752;4.268;2023-06-22T08:23:48;13.88;;;12.38;;
25481;SDS011;13395;50.752;4.268;2023-06-22T08:26:14;19.13;;;14.10;;
25481;SDS011;13395;50.752;4.268;2023-06-22T08:28:40;18.33;;;12.00;;
25481;SDS011;13395;50.752;4.268;2023-06-22T08:31:05;18.52;;;13.27;;
25481;SDS011;13395;50.752;4.268;2023-06-22T08:33:31;18.35;;;12.65;;
25481;SDS011;13395;50.752;4.268;2023-06-22T08:46:11;14.95;;;12.70;;
25481;SDS011;13395;50.752;4.268;2023-06-22T09:30:02;37.08;;;19.10;;
25481;SDS011;13395;50.752;4.268;2023-06-22T09:32:28;30.92;;;20.02;;
25481;SDS011;13395;50.752;4.268;2023-06-22T09:34:54;37.38;;;19.80;;
25481;SDS011;13395;50.752;4.268;2023-06-22T10:05:48;33.08;;;21.38;;
25481;SDS011;13395;50.752;4.268;2023-06-22T10:08:14;26.35;;;21.70;;
25481;SDS011;13395;50.752;4.268;2023-06-22T10:10:40;19.75;;;17.70;;
25481;SDS011;13395;50.752;4.268;2023-06-22T10:13:09;21.83;;;16.67;;
25481;SDS011;13395;50.752;4.268;2023-06-22T10:15:36;21.70;;;17.05;;
25481;SDS011;13395;50.752;4.268;2023-06-22T10:18:02;27.42;;;18.38;;
25481;SDS011;13395;50.752;4.268;2023-06-22T10:20:27;25.15;;;19.58;;
25481;SDS011;13395;50.752;4.268;2023-06-22T10:22:53;22.80;;;18.40;;
25481;SDS011;13395;50.752;4.268;2023-06-22T10:25:19;24.63;;;18.60;;
25481;SDS011;13395;50.752;4.268;2023-06-22T10:27:45;24.25;;;19.77;;
25481;SDS011;13395;50.752;4.268;2023-06-22T10:30:11;26.90;;;20.10;;
25481;SDS011;13395;50.752;4.268;2023-06-22T10:32:38;26.27;;;20.10;;
25481;SDS011;13395;50.752;4.268;2023-06-22T10:35:04;30.02;;;22.77;;
25481;SDS011;13395;50.752;4.268;2023-06-22T10:37:30;24.65;;;21.15;;
25481;SDS011;13395;50.752;4.268;2023-06-22T10:39:56;29.08;;;21.58;;
25481;SDS011;13395;50.752;4.268;2023-06-22T10:42:21;27.98;;;22.55;;
25481;SDS011;13395;50.752;4.268;2023-06-22T10:49:58;21.67;;;17.33;;
25481;SDS011;13395;50.752;4.268;2023-06-22T11:05:20;22.10;;;18.85;;
25481;SDS011;13395;50.752;4.268;2023-06-22T11:07:46;21.98;;;18.35;;
25481;SDS011;13395;50.752;4.268;2023-06-22T11:10:14;22.42;;;19.10;;
25481;SDS011;13395;50.752;4.268;2023-06-22T11:17:43;24.25;;;20.67;;
25481;SDS011;13395;50.752;4.268;2023-06-22T11:22:44;29.42;;;22.55;;
25481;SDS011;13395;50.752;4.268;2023-06-22T11:25:09;25.38;;;21.70;;
25481;SDS011;13395;50.752;4.268;2023-06-22T11:27:37;30.08;;;23.48;;
25481;SDS011;13395;50.752;4.268;2023-06-22T11:35:13;32.03;;;24.65;;
25481;SDS011;13395;50.752;4.268;2023-06-22T11:40:15;29.85;;;23.67;;
25481;SDS011;13395;50.752;4.268;2023-06-22T11:45:16;33.67;;;27.60;;
25481;SDS011;13395;50.752;4.268;2023-06-22T11:50:18;33.45;;;25.98;;
25481;SDS011;13395;50.752;4.268;2023-06-22T11:52:44;33.08;;;26.67;;
25481;SDS011;13395;50.752;4.268;2023-06-22T11:57:53;28.60;;;24.58;;
25481;SDS011;13395;50.752;4.268;2023-06-22T12:00:20;30.33;;;23.63;;
25481;SDS011;13395;50.752;4.268;2023-06-22T12:02:48;30.45;;;25.80;;
25481;SDS011;13395;50.752;4.268;2023-06-22T12:23:19;31.83;;;24.70;;
25481;SDS011;13395;50.752;4.268;2023-06-22T13:38:05;51.22;;;35.97;;
25481;SDS011;13395;50.752;4.268;2023-06-22T13:40:31;50.53;;;33.10;;
25481;SDS011;13395;50.752;4.268;2023-06-22T13:42:57;54.67;;;34.53;;
25481;SDS011;13395;50.752;4.268;2023-06-22T13:45:23;52.30;;;33.30;;
25481;SDS011;13395;50.752;4.268;2023-06-22T13:47:48;51.13;;;34.00;;
25481;SDS011;13395;50.752;4.268;2023-06-22T13:50:14;43.17;;;31.20;;
25481;SDS011;13395;50.752;4.268;2023-06-22T13:52:40;48.80;;;32.38;;
25481;SDS011;13395;50.752;4.268;2023-06-22T13:55:06;41.83;;;31.73;;
25481;SDS011;13395;50.752;4.268;2023-06-22T14:00:07;41.25;;;30.55;;
25481;SDS011;13395;50.752;4.268;2023-06-22T14:02:34;43.65;;;29.60;;
25481;SDS011;13395;50.752;4.268;2023-06-22T14:05:00;47.42;;;29.88;;
25481;SDS011;13395;50.752;4.268;2023-06-22T14:07:27;40.70;;;30.02;;
25481;SDS011;13395;50.752;4.268;2023-06-22T14:09:53;41.92;;;27.75;;
25481;SDS011;13395;50.752;4.268;2023-06-22T14:12:18;38.20;;;29.27;;
25481;SDS011;13395;50.752;4.268;2023-06-22T14:14:44;41.92;;;29.77;;
25481;SDS011;13395;50.752;4.268;2023-06-22T14:19:37;38.67;;;29.25;;
25481;SDS011;13395;50.752;4.268;2023-06-22T14:27:06;37.67;;;29.35;;
25481;SDS011;13395;50.752;4.268;2023-06-22T14:32:02;42.65;;;29.90;;
25481;SDS011;13395;50.752;4.268;2023-06-22T14:34:29;42.40;;;30.05;;
25481;SDS011;13395;50.752;4.268;2023-06-22T14:36:55;36.83;;;30.52;;
25481;SDS011;13395;50.752;4.268;2023-06-22T14:39:20;37.53;;;29.15;;
25481;SDS011;13395;50.752;4.268;2023-06-22T14:41:46;42.97;;;30.15;;
25481;SDS011;13395;50.752;4.268;2023-06-22T14:44:12;42.13;;;28.30;;
25481;SDS011;13395;50.752;4.268;2023-06-22T14:46:37;38.67;;;28.30;;
25481;SDS011;13395;50.752;4.268;2023-06-22T14:49:03;37.45;;;29.10;;
25481;SDS011;13395;50.752;4.268;2023-06-22T14:51:29;35.83;;;29.08;;
25481;SDS011;13395;50.752;4.268;2023-06-22T14:53:54;38.08;;;30.60;;
25481;SDS011;13395;50.752;4.268;2023-06-22T14:58:56;43.10;;;33.10;;
25481;SDS011;13395;50.752;4.268;2023-06-22T15:01:21;47.28;;;35.08;;
25481;SDS011;13395;50.752;4.268;2023-06-22T15:06:22;48.90;;;36.42;;
25481;SDS011;13395;50.752;4.268;2023-06-22T15:13:59;49.45;;;37.63;;
25481;SDS011;13395;50.752;4.268;2023-06-22T15:16:25;48.13;;;34.10;;
25481;SDS011;13395;50.752;4.268;2023-06-22T15:18:51;47.45;;;36.22;;
25481;SDS011;13395;50.752;4.268;2023-06-22T15:21:16;52.63;;;37.42;;
25481;SDS011;13395;50.752;4.268;2023-06-22T15:23:42;42.72;;;34.50;;
25481;SDS011;13395;50.752;4.268;2023-06-22T15:33:53;43.42;;;33.33;;
25481;SDS011;13395;50.752;4.268;2023-06-22T15:36:19;45.67;;;34.47;;
25481;SDS011;13395;50.752;4.268;2023-06-22T16:04:38;44.30;;;36.00;;
25481;SDS011;13395;50.752;4.268;2023-06-22T16:20:08;43.40;;;34.40;;
25481;SDS011;13395;50.752;4.268;2023-06-22T16:27:46;55.03;;;36.75;;
25481;SDS011;13395;50.752;4.268;2023-06-22T16:30:12;50.38;;;36.55;;
25481;SDS011;13395;50.752;4.268;2023-06-22T16:32:38;50.28;;;37.13;;
25481;SDS011;13395;50.752;4.268;2023-06-22T16:35:04;50.40;;;36.38;;
25481;SDS011;13395;50.752;4.268;2023-06-22T16:37:30;44.95;;;33.70;;
25481;SDS011;13395;50.752;4.268;2023-06-22T16:39:55;51.00;;;36.83;;
25481;SDS011;13395;50.752;4.268;2023-06-22T16:42:21;53.60;;;36.05;;
25481;SDS011;13395;50.752;4.268;2023-06-22T16:44:47;52.58;;;37.40;;
25481;SDS011;13395;50.752;4.268;2023-06-22T16:47:13;51.63;;;36.60;;
25481;SDS011;13395;50.752;4.268;2023-06-22T16:49:38;53.13;;;37.22;;
25481;SDS011;13395;50.752;4.268;2023-06-22T16:52:04;47.65;;;35.45;;
25481;SDS011;13395;50.752;4.268;2023-06-22T16:54:30;51.28;;;35.55;;
25481;SDS011;13395;50.752;4.268;2023-06-22T16:56:58;48.00;;;35.90;;
25481;SDS011;13395;50.752;4.268;2023-06-22T16:59:25;48.53;;;36.75;;
25481;SDS011;13395;50.752;4.268;2023-06-22T17:01:52;45.72;;;35.80;;
25481;SDS011;13395;50.752;4.268;2023-06-22T17:04:23;51.42;;;35.58;;
25481;SDS011;13395;50.752;4.268;2023-06-22T17:06:54;44.65;;;34.58;;
25481;SDS011;13395;50.752;4.268;2023-06-22T17:09:26;49.25;;;34.17;;
25481;SDS011;13395;50.752;4.268;2023-06-22T17:14:30;52.67;;;37.70;;
25481;SDS011;13395;50.752;4.268;2023-06-22T17:16:56;54.10;;;37.63;;
25481;SDS011;13395;50.752;4.268;2023-06-22T17:21:58;54.35;;;37.03;;
25481;SDS011;13395;50.752;4.268;2023-06-22T17:24:24;51.95;;;37.35;;
25481;SDS011;13395;50.752;4.268;2023-06-22T17:26:53;58.55;;;38.42;;
25481;SDS011;13395;50.752;4.268;2023-06-22T17:29:20;49.72;;;36.35;;
25481;SDS011;13395;50.752;4.268;2023-06-22T17:31:46;50.33;;;36.45;;
25481;SDS011;13395;50.752;4.268;2023-06-22T17:34:12;54.22;;;37.00;;
25481;SDS011;13395;50.752;4.268;2023-06-22T17:39:17;58.00;;;39.30;;
25481;SDS011;13395;50.752;4.268;2023-06-22T17:41:45;56.65;;;39.10;;
25481;SDS011;13395;50.752;4.268;2023-06-22T17:44:23;53.30;;;37.78;;
25481;SDS011;13395;50.752;4.268;2023-06-22T17:46:52;51.30;;;36.67;;
25481;SDS011;13395;50.752;4.268;2023-06-22T17:49:19;56.95;;;39.05;;
25481;SDS011;13395;50.752;4.268;2023-06-22T17:51:46;55.75;;;39.38;;
25481;SDS011;13395;50.752;4.268;2023-06-22T17:54:15;60.85;;;39.50;;
25481;SDS011;13395;50.752;4.268;2023-06-22T17:56:41;61.10;;;40.42;;
25481;SDS011;13395;50.752;4.268;2023-06-22T17:59:07;60.50;;;41.33;;
25481;SDS011;13395;50.752;4.268;2023-06-22T18:01:36;61.97;;;41.13;;
25481;SDS011;13395;50.752;4.268;2023-06-22T18:04:10;62.42;;;41.15;;
25481;SDS011;13395;50.752;4.268;2023-06-22T18:06:37;59.75;;;43.47;;
25481;SDS011;13395;50.752;4.268;2023-06-22T18:09:03;66.43;;;43.88;;
25481;SDS011;13395;50.752;4.268;2023-06-22T18:11:34;59.33;;;40.90;;
25481;SDS011;13395;50.752;4.268;2023-06-22T18:14:02;63.72;;;41.58;;
25481;SDS011;13395;50.752;4.268;2023-06-22T18:16:30;61.92;;;40.80;;
25481;SDS011;13395;50.752;4.268;2023-06-22T18:18:58;67.53;;;44.13;;
25481;SDS011;13395;50.752;4.268;2023-06-22T18:21:25;64.00;;;43.08;;
25481;SDS011;13395;50.752;4.268;2023-06-22T18:23:52;67.15;;;44.67;;
25481;SDS011;13395;50.752;4.268;2023-06-22T18:26:22;59.47;;;43.10;;
25481;SDS011;13395;50.752;4.268;2023-06-22T18:28:53;66.28;;;42.38;;
25481;SDS011;13395;50.752;4.268;2023-06-22T18:31:20;63.70;;;41.92;;
25481;SDS011;13395;50.752;4.268;2023-06-22T18:36:45;67.07;;;43.17;;
25481;SDS011;13395;50.752;4.268;2023-06-22T18:39:11;60.97;;;41.88;;
25481;SDS011;13395;50.752;4.268;2023-06-22T18:41:39;68.53;;;44.67;;
25481;SDS011;13395;50.752;4.268;2023-06-22T18:44:24;64.38;;;43.50;;
25481;SDS011;13395;50.752;4.268;2023-06-22T18:46:52;68.38;;;44.35;;
25481;SDS011;13395;50.752;4.268;2023-06-22T18:49:30;63.30;;;42.85;;
25481;SDS011;13395;50.752;4.268;2023-06-22T18:52:04;67.97;;;44.50;;
25481;SDS011;13395;50.752;4.268;2023-06-22T18:57:27;68.03;;;44.53;;
25481;SDS011;13395;50.752;4.268;2023-06-22T18:59:54;76.15;;;45.38;;
25481;SDS011;13395;50.752;4.268;2023-06-22T19:05:07;62.80;;;43.60;;
25481;SDS011;13395;50.752;4.268;2023-06-22T19:12:56;67.68;;;47.00;;
25481;SDS011;13395;50.752;4.268;2023-06-22T19:15:30;76.85;;;48.42;;
25481;SDS011;13395;50.752;4.268;2023-06-22T19:17:59;72.60;;;47.53;;
25481;SDS011;13395;50.752;4.268;2023-06-22T19:20:37;78.95;;;50.45;;
25481;SDS011;13395;50.752;4.268;2023-06-22T19:23:04;83.07;;;51.47;;
25481;SDS011;13395;50.752;4.268;2023-06-22T19:25:29;93.05;;;54.83;;
25481;SDS011;13395;50.752;4.268;2023-06-22T19:27:58;83.32;;;53.92;;
25481;SDS011;13395;50.752;4.268;2023-06-22T19:30:24;100.40;;;57.45;;
25481;SDS011;13395;50.752;4.268;2023-06-22T19:32:52;101.20;;;61.35;;
25481;SDS011;13395;50.752;4.268;2023-06-22T19:35:18;101.05;;;61.47;;
25481;SDS011;13395;50.752;4.268;2023-06-22T19:37:48;103.38;;;65.35;;
25481;SDS011;13395;50.752;4.268;2023-06-22T19:40:14;102.60;;;64.05;;
25481;SDS011;13395;50.752;4.268;2023-06-22T19:42:43;106.97;;;67.22;;
25481;SDS011;13395;50.752;4.268;2023-06-22T19:45:09;110.85;;;64.68;;
25481;SDS011;13395;50.752;4.268;2023-06-22T19:47:40;105.18;;;65.53;;
25481;SDS011;13395;50.752;4.268;2023-06-22T19:50:07;114.28;;;67.80;;
25481;SDS011;13395;50.752;4.268;2023-06-22T19:52:37;112.90;;;66.85;;
25481;SDS011;13395;50.752;4.268;2023-06-22T19:55:04;102.93;;;65.93;;
25481;SDS011;13395;50.752;4.268;2023-06-22T19:57:33;109.72;;;66.95;;
25481;SDS011;13395;50.752;4.268;2023-06-22T19:59:59;108.65;;;65.30;;
25481;SDS011;13395;50.752;4.268;2023-06-22T20:02:26;111.70;;;64.85;;
25481;SDS011;13395;50.752;4.268;2023-06-22T20:04:53;106.85;;;67.13;;
25481;SDS011;13395;50.752;4.268;2023-06-22T20:07:19;109.45;;;67.18;;
25481;SDS011;13395;50.752;4.268;2023-06-22T20:09:44;114.10;;;68.07;;
25481;SDS011;13395;50.752;4.268;2023-06-22T20:12:23;106.03;;;65.93;;
25481;SDS011;13395;50.752;4.268;2023-06-22T20:14:53;115.45;;;68.43;;
25481;SDS011;13395;50.752;4.268;2023-06-22T20:17:20;112.22;;;66.90;;
25481;SDS011;13395;50.752;4.268;2023-06-22T20:19:45;110.30;;;66.90;;
25481;SDS011;13395;50.752;4.268;2023-06-22T20:22:18;110.95;;;66.72;;
25481;SDS011;13395;50.752;4.268;2023-06-22T20:24:44;125.63;;;70.00;;
25481;SDS011;13395;50.752;4.268;2023-06-22T20:27:10;118.15;;;69.28;;
25481;SDS011;13395;50.752;4.268;2023-06-22T20:29:36;125.93;;;68.55;;
25481;SDS011;13395;50.752;4.268;2023-06-22T20:32:06;111.15;;;69.20;;
25481;SDS011;13395;50.752;4.268;2023-06-22T20:34:37;109.78;;;64.45;;
25481;SDS011;13395;50.752;4.268;2023-06-22T20:37:06;112.65;;;64.53;;
25481;SDS011;13395;50.752;4.268;2023-06-22T20:39:32;112.50;;;65.13;;
25481;SDS011;13395;50.752;4.268;2023-06-22T20:41:59;100.05;;;59.70;;
25481;SDS011;13395;50.752;4.268;2023-06-22T20:44:25;106.72;;;62.20;;
25481;SDS011;13395;50.752;4.268;2023-06-22T20:46:50;109.93;;;62.45;;
25481;SDS011;13395;50.752;4.268;2023-06-22T20:49:16;111.00;;;64.00;;
25481;SDS011;13395;50.752;4.268;2023-06-22T20:51:42;114.53;;;61.17;;
25481;SDS011;13395;50.752;4.268;2023-06-22T20:54:08;108.57;;;62.90;;
25481;SDS011;13395;50.752;4.268;2023-06-22T20:56:34;116.45;;;66.55;;
25481;SDS011;13395;50.752;4.268;2023-06-22T20:59:00;111.95;;;65.88;;
25481;SDS011;13395;50.752;4.268;2023-06-22T21:01:26;123.13;;;66.70;;
25481;SDS011;13395;50.752;4.268;2023-06-22T21:04:01;114.97;;;65.10;;
25481;SDS011;13395;50.752;4.268;2023-06-22T21:06:27;129.05;;;68.53;;
25481;SDS011;13395;50.752;4.268;2023-06-22T21:08:53;130.60;;;69.32;;
25481;SDS011;13395;50.752;4.268;2023-06-22T21:11:19;123.78;;;67.10;;
25481;SDS011;13395;50.752;4.268;2023-06-22T21:13:45;117.32;;;62.10;;
25481;SDS011;13395;50.752;4.268;2023-06-22T21:16:10;119.15;;;64.18;;
25481;SDS011;13395;50.752;4.268;2023-06-22T21:18:37;122.57;;;67.72;;
25481;SDS011;13395;50.752;4.268;2023-06-22T21:21:02;119.43;;;64.60;;
25481;SDS011;13395;50.752;4.268;2023-06-22T21:23:28;119.13;;;64.43;;
25481;SDS011;13395;50.752;4.268;2023-06-22T21:25:54;119.55;;;66.10;;
25481;SDS011;13395;50.752;4.268;2023-06-22T21:28:20;118.70;;;63.40;;
25481;SDS011;13395;50.752;4.268;2023-06-22T21:30:46;120.05;;;64.03;;
25481;SDS011;13395;50.752;4.268;2023-06-22T21:33:11;128.32;;;65.53;;
25481;SDS011;13395;50.752;4.268;2023-06-22T21:35:37;118.28;;;63.67;;
25481;SDS011;13395;50.752;4.268;2023-06-22T21:38:03;121.93;;;63.45;;
25481;SDS011;13395;50.752;4.268;2023-06-22T21:40:28;125.95;;;64.80;;
25481;SDS011;13395;50.752;4.268;2023-06-22T21:42:54;128.45;;;66.93;;
25481;SDS011;13395;50.752;4.268;2023-06-22T21:45:22;121.75;;;63.15;;
25481;SDS011;13395;50.752;4.268;2023-06-22T21:47:48;121.32;;;64.18;;
25481;SDS011;13395;50.752;4.268;2023-06-22T21:50:14;122.05;;;61.78;;
25481;SDS011;13395;50.752;4.268;2023-06-22T21:52:39;110.00;;;60.20;;
25481;SDS011;13395;50.752;4.268;2023-06-22T21:55:05;124.75;;;62.03;;
25481;SDS011;13395;50.752;4.268;2023-06-22T21:57:31;120.35;;;63.42;;
25481;SDS011;13395;50.752;4.268;2023-06-22T21:59:56;134.32;;;66.82;;
25481;SDS011;13395;50.752;4.268;2023-06-22T22:02:22;124.93;;;64.85;;
25481;SDS011;13395;50.752;4.268;2023-06-22T22:04:48;121.20;;;63.47;;
25481;SDS011;13395;50.752;4.268;2023-06-22T22:07:16;115.63;;;61.83;;
25481;SDS011;13395;50.752;4.268;2023-06-22T22:09:42;125.85;;;60.60;;
25481;SDS011;13395;50.752;4.268;2023-06-22T22:12:08;123.65;;;61.88;;
25481;SDS011;13395;50.752;4.268;2023-06-22T22:14:34;116.95;;;60.50;;
25481;SDS011;13395;50.752;4.268;2023-06-22T22:17:00;139.98;;;63.63;;
25481;SDS011;13395;50.752;4.268;2023-06-22T22:19:25;125.43;;;60.40;;
25481;SDS011;13395;50.752;4.268;2023-06-22T22:21:51;125.13;;;61.22;;
25481;SDS011;13395;50.752;4.268;2023-06-22T22:24:17;137.18;;;65.15;;
25481;SDS011;13395;50.752;4.268;2023-06-22T22:26:42;128.20;;;60.95;;
25481;SDS011;13395;50.752;4.268;2023-06-22T22:29:08;135.23;;;62.58;;
25481;SDS011;13395;50.752;4.268;2023-06-22T22:31:33;122.50;;;59.22;;
25481;SDS011;13395;50.752;4.268;2023-06-22T22:34:06;116.47;;;57.58;;
25481;SDS011;13395;50.752;4.268;2023-06-22T22:36:34;110.25;;;57.40;;
25481;SDS011;13395;50.752;4.268;2023-06-22T22:38:59;114.43;;;55.95;;
25481;SDS011;13395;50.752;4.268;2023-06-22T22:41:25;113.28;;;54.35;;
25481;SDS011;13395;50.752;4.268;2023-06-22T22:43:51;111.50;;;52.63;;
25481;SDS011;13395;50.752;4.268;2023-06-22T22:46:17;102.60;;;53.70;;
25481;SDS011;13395;50.752;4.268;2023-06-22T22:48:42;140.07;;;54.63;;
25481;SDS011;13395;50.752;4.268;2023-06-22T22:51:08;115.75;;;53.47;;
25481;SDS011;13395;50.752;4.268;2023-06-22T22:53:34;111.15;;;53.17;;
25481;SDS011;13395;50.752;4.268;2023-06-22T22:56:03;100.65;;;52.53;;
25481;SDS011;13395;50.752;4.268;2023-06-22T22:58:29;97.45;;;49.40;;
25481;SDS011;13395;50.752;4.268;2023-06-22T23:00:55;103.30;;;51.45;;
25481;SDS011;13395;50.752;4.268;2023-06-22T23:03:21;98.97;;;50.70;;
25481;SDS011;13395;50.752;4.268;2023-06-22T23:05:47;103.03;;;50.45;;
25481;SDS011;13395;50.752;4.268;2023-06-22T23:08:16;99.40;;;50.25;;
25481;SDS011;13395;50.752;4.268;2023-06-22T23:10:41;98.03;;;49.47;;
25481;SDS011;13395;50.752;4.268;2023-06-22T23:13:07;103.57;;;50.15;;
25481;SDS011;13395;50.752;4.268;2023-06-22T23:15:32;107.55;;;51.58;;
25481;SDS011;13395;50.752;4.268;2023-06-22T23:17:58;97.45;;;49.00;;
25481;SDS011;13395;50.752;4.268;2023-06-22T23:20:24;105.45;;;49.70;;
25481;SDS011;13395;50.752;4.268;2023-06-22T23:22:55;94.40;;;47.33;;
25481;SDS011;13395;50.752;4.268;2023-06-22T23:25:25;97.07;;;48.30;;
25481;SDS011;13395;50.752;4.268;2023-06-22T23:27:51;113.18;;;51.53;;
25481;SDS011;13395;50.752;4.268;2023-06-22T23:30:17;109.63;;;51.03;;
25481;SDS011;13395;50.752;4.268;2023-06-22T23:32:44;104.82;;;51.85;;
25481;SDS011;13395;50.752;4.268;2023-06-22T23:35:10;110.30;;;52.15;;
25481;SDS011;13395;50.752;4.268;2023-06-22T23:37:36;99.35;;;50.30;;
25481;SDS011;13395;50.752;4.268;2023-06-22T23:40:03;101.97;;;51.22;;
25481;SDS011;13395;50.752;4.268;2023-06-22T23:42:36;98.93;;;51.60;;
25481;SDS011;13395;50.752;4.268;2023-06-22T23:45:01;106.70;;;49.53;;
25481;SDS011;13395;50.752;4.268;2023-06-22T23:47:27;118.10;;;57.47;;
25481;SDS011;13395;50.752;4.268;2023-06-22T23:49:54;105.47;;;52.08;;
25481;SDS011;13395;50.752;4.268;2023-06-22T23:52:20;111.00;;;54.42;;
25481;SDS011;13395;50.752;4.268;2023-06-22T23:54:45;119.07;;;56.75;;
25481;SDS011;13395;50.752;4.268;2023-06-22T23:57:11;112.10;;;55.95;;
25481;SDS011;13395;50.752;4.268;2023-06-22T23:59:36;125.68;;;58.60;;
